MSC Poh Lin — H8FC — position and weather

sailwx.info

Track history (hours):
 
Tides and Currents Weather Stations Pressure Air Temp Water Temp Dewpoint Dewpoint Depression Visibility Wind Speed Wind Dir Waves Ship Positions

MSC Poh Lin

Last reported at 2016-Jun-25 13:08 UTC. Time now 2016-Jun-25 17:52 UTC.
Position N 09°48' W 079°33'.

Length 294 m; draft 10.1 m.

Type: Ship (hazmat cat A). MMSI: 357405000.

Date/timePositionNaut miles runAvg speedWind from/ knotsBaromVisibWave heightAir tempDewpointWater temp
2016-Jun-25 13:08N 09°48' W 079°33'1120.0
2016-Jun-25 12:33N 09°41' W 079°42'1919.0
2016-Jun-25 11:34N 09°26' W 079°55'5 5.2
2016-Jun-25 10:33N 09°21' W 079°55'0 0.0
2016-Jun-25 09:33N 09°21' W 079°55'0 0.0
2016-Jun-25 08:33N 09°21' W 079°55'0 0.0
2016-Jun-25 07:33N 09°21' W 079°55'0 0.0
2016-Jun-25 06:31N 09°21' W 079°55'0 0.0
2016-Jun-25 05:33N 09°21' W 079°55'0 0.0
2016-Jun-25 04:33N 09°21' W 079°55'0 0.0
2016-Jun-25 03:33N 09°21' W 079°55'0 0.0
2016-Jun-25 02:31N 09°21' W 079°55'0 0.0
2016-Jun-25 01:24N 09°21' W 079°55'0 0.0
2016-Jun-25 00:33N 09°21' W 079°55'0 0.0
2016-Jun-24 23:33N 09°21' W 079°55'0 0.0
2016-Jun-24 22:33N 09°21' W 079°55'0 0.1
2016-Jun-24 21:34N 09°21' W 079°55'5 4.5
2016-Jun-24 20:33N 09°17' W 079°55'0 0.4
2016-Jun-24 19:33N 09°16' W 079°55'1 1.3
2016-Jun-24 18:33N 09°15' W 079°55'8 8.0
2016-Jun-24 17:33N 09°10' W 079°49'8 8.2
2016-Jun-24 16:33N 09°06' W 079°41'7 6.4
2016-Jun-24 15:30N 09°01' W 079°37'1 1.0
2016-Jun-24 14:25N 09°00' W 079°36'1 1.0
2016-Jun-24 13:25N 08°60' W 079°35'1 1.4
2016-Jun-24 12:28N 08°59' W 079°35'1 0.2
2016-Jun-24 03:26N 08°57' W 079°34'0 0.0
2016-Jun-24 01:28N 08°57' W 079°34'0 0.0
2016-Jun-24 00:16N 08°57' W 079°34'0 0.0
2016-Jun-23 23:31N 08°57' W 079°34'0 0.0
2016-Jun-23 19:10N 08°57' W 079°34'7 1.0
2016-Jun-23 12:21N 08°53' W 079°29'0 0.0
2016-Jun-23 11:16N 08°53' W 079°29'1 1.8
2016-Jun-23 10:33N 08°52' W 079°28'  
Track history (hours):
 
Tides and Currents Weather Stations Pressure Air Temp Water Temp Dewpoint Dewpoint Depression Visibility Wind Speed Wind Dir Waves Ship Positions

MSC Poh Lin

Last reported at 2016-Jun-25 13:08 UTC. Time now 2016-Jun-25 17:52 UTC.
Position N 09°48' W 079°33'.

Length 294 m; draft 10.1 m.

Type: Ship (hazmat cat A). MMSI: 357405000.

Date/timePositionNaut miles runAvg speedWind from/ knotsBaromVisibWave heightAir tempDewpointWater temp
2016-Jun-25 13:08N 09°48' W 079°33'1120.0
2016-Jun-25 12:33N 09°41' W 079°42'1919.0
2016-Jun-25 11:34N 09°26' W 079°55'5 5.2
2016-Jun-25 10:33N 09°21' W 079°55'0 0.0
2016-Jun-25 09:33N 09°21' W 079°55'0 0.0
2016-Jun-25 08:33N 09°21' W 079°55'0 0.0
2016-Jun-25 07:33N 09°21' W 079°55'0 0.0
2016-Jun-25 06:31N 09°21' W 079°55'0 0.0
2016-Jun-25 05:33N 09°21' W 079°55'0 0.0
2016-Jun-25 04:33N 09°21' W 079°55'0 0.0
2016-Jun-25 03:33N 09°21' W 079°55'0 0.0
2016-Jun-25 02:31N 09°21' W 079°55'0 0.0
2016-Jun-25 01:24N 09°21' W 079°55'0 0.0
2016-Jun-25 00:33N 09°21' W 079°55'0 0.0
2016-Jun-24 23:33N 09°21' W 079°55'0 0.0
2016-Jun-24 22:33N 09°21' W 079°55'0 0.1
2016-Jun-24 21:34N 09°21' W 079°55'5 4.5
2016-Jun-24 20:33N 09°17' W 079°55'0 0.4
2016-Jun-24 19:33N 09°16' W 079°55'1 1.3
2016-Jun-24 18:33N 09°15' W 079°55'8 8.0
2016-Jun-24 17:33N 09°10' W 079°49'8 8.2
2016-Jun-24 16:33N 09°06' W 079°41'7 6.4
2016-Jun-24 15:30N 09°01' W 079°37'1 1.0
2016-Jun-24 14:25N 09°00' W 079°36'1 1.0
2016-Jun-24 13:25N 08°60' W 079°35'1 1.4
2016-Jun-24 12:28N 08°59' W 079°35'1 0.2
2016-Jun-24 03:26N 08°57' W 079°34'0 0.0
2016-Jun-24 01:28N 08°57' W 079°34'0 0.0
2016-Jun-24 00:16N 08°57' W 079°34'0 0.0
2016-Jun-23 23:31N 08°57' W 079°34'0 0.0
2016-Jun-23 19:10N 08°57' W 079°34'7 1.0
2016-Jun-23 12:21N 08°53' W 079°29'0 0.0
2016-Jun-23 11:16N 08°53' W 079°29'1 1.8
2016-Jun-23 10:33N 08°52' W 079°28'  

Dump ship's entire track history